createdAt,value
2019-03-02T00:00:14.295Z,40.02
2019-03-02T00:01:14.606Z,40.07
2019-03-02T00:02:14.281Z,40.04
2019-03-02T00:03:14.313Z,40.02
2019-03-02T00:04:14.516Z,40.05
2019-03-02T00:05:14.247Z,40.05
2019-03-02T00:06:14.333Z,40.05
2019-03-02T00:07:14.676Z,40.04
2019-03-02T00:08:14.352Z,40.07
2019-03-02T00:09:14.412Z,40.05
2019-03-02T00:10:14.178Z,40.04
2019-03-02T00:11:14.307Z,40.04
2019-03-02T00:12:14.336Z,40.04
2019-03-02T00:13:14.180Z,40.04
2019-03-02T00:14:19.113Z,40.08
2019-03-02T00:15:14.503Z,40.05
2019-03-02T00:16:14.177Z,40.06
2019-03-02T00:17:18.984Z,40.04
2019-03-02T00:18:14.349Z,40.07
2019-03-02T00:19:14.226Z,40.06
2019-03-02T00:20:18.037Z,40.07
2019-03-02T00:21:14.355Z,40.1
2019-03-02T00:22:14.116Z,40.06
2019-03-02T00:23:18.782Z,40.05
2019-03-02T00:24:14.348Z,40.06
2019-03-02T00:25:14.151Z,40
2019-03-02T00:26:14.311Z,40.06
2019-03-02T00:27:14.266Z,40.06
2019-03-02T00:28:14.129Z,40.06
2019-03-02T00:29:14.277Z,40.05
2019-03-02T00:30:21.022Z,40.01
2019-03-02T00:31:14.440Z,40.1
2019-03-02T00:32:14.210Z,40.07
2019-03-02T00:33:19.666Z,40.07
2019-03-02T00:34:14.381Z,40.03
2019-03-02T00:35:14.192Z,40.04
2019-03-02T00:36:19.390Z,40.05
2019-03-02T00:37:14.429Z,40.06
2019-03-02T00:38:14.215Z,40.05
2019-03-02T00:39:19.051Z,40.08
2019-03-02T00:40:14.394Z,40.09
2019-03-02T00:41:14.241Z,40.07
2019-03-02T00:42:17.909Z,40.1
2019-03-02T00:43:14.394Z,40.06
2019-03-02T00:44:14.209Z,40.09
2019-03-02T00:45:15.659Z,40.1
2019-03-02T00:46:14.484Z,40.05
2019-03-02T00:47:14.247Z,40.06
2019-03-02T00:48:14.261Z,40.09
2019-03-02T00:49:14.392Z,40.08
2019-03-02T00:50:14.273Z,40.06
2019-03-02T00:51:14.341Z,40.08
2019-03-02T00:52:14.342Z,40.07
2019-03-02T00:53:14.211Z,40.07
2019-03-02T00:54:14.221Z,40.11
2019-03-02T00:55:14.323Z,40.12
2019-03-02T00:56:14.180Z,40.13
2019-03-02T00:57:18.747Z,40.1
2019-03-02T00:58:14.421Z,40.1
2019-03-02T00:59:14.195Z,40.06
2019-03-02T01:00:16.475Z,40.1
2019-03-02T01:01:14.394Z,40.09
2019-03-02T01:02:14.127Z,40.07
2019-03-02T01:03:16.891Z,40.1
2019-03-02T01:04:14.370Z,40.12
2019-03-02T01:05:14.139Z,40.06
2019-03-02T01:06:14.171Z,40.09
2019-03-02T01:07:14.343Z,40.09
2019-03-02T01:08:14.166Z,40.09
2019-03-02T01:09:14.202Z,40.12
2019-03-02T01:10:14.360Z,40.09
2019-03-02T01:11:14.237Z,40.12
2019-03-02T01:12:14.357Z,40.1
2019-03-02T01:13:19.780Z,40.1
2019-03-02T01:14:14.164Z,40.09
2019-03-02T01:15:14.229Z,40.07
2019-03-02T01:16:19.879Z,40.11
2019-03-02T01:17:14.131Z,40.05
2019-03-02T01:18:14.223Z,40.08
2019-03-02T01:19:17.738Z,40.09
2019-03-02T01:20:14.352Z,40.1
2019-03-02T01:21:14.299Z,40.1
2019-03-02T01:22:17.398Z,40.1
2019-03-02T01:23:14.747Z,40.1
2019-03-02T01:24:14.162Z,40.09
2019-03-02T01:25:14.605Z,40.1
2019-03-02T01:26:14.352Z,40.08
2019-03-02T01:27:14.319Z,40.13
2019-03-02T01:28:14.291Z,40.12
2019-03-02T01:29:18.939Z,40.12
2019-03-02T01:30:14.285Z,40.14
2019-03-02T01:31:14.292Z,40.12
2019-03-02T01:32:17.450Z,40.1
2019-03-02T01:33:14.180Z,40.11
2019-03-02T01:34:14.469Z,40.1
2019-03-02T01:35:19.995Z,40.15
2019-03-02T01:36:14.124Z,40.12
2019-03-02T01:37:14.209Z,40.07
2019-03-02T01:38:18.581Z,40.13
2019-03-02T01:39:14.156Z,40.11
2019-03-02T01:40:14.312Z,40.06
2019-03-02T01:41:19.057Z,40.11
2019-03-02T01:42:14.132Z,40.13
2019-03-02T01:43:14.255Z,40.12
2019-03-02T01:44:17.556Z,40.13
2019-03-02T01:45:14.140Z,40.11
2019-03-02T01:46:14.461Z,40.13
2019-03-02T01:47:17.018Z,40.14
2019-03-02T01:48:14.265Z,40.18
2019-03-02T01:49:14.259Z,40.12
2019-03-02T01:50:14.308Z,40.14
2019-03-02T01:51:14.168Z,40.13
2019-03-02T01:52:14.310Z,40.12
2019-03-02T01:53:14.301Z,40.13
2019-03-02T01:54:14.122Z,40.14
2019-03-02T01:55:14.229Z,40.11
2019-03-02T01:56:14.265Z,40.14
2019-03-02T01:57:17.967Z,40.12
2019-03-02T01:58:14.252Z,40.09
2019-03-02T01:59:14.322Z,40.1
2019-03-02T02:00:14.746Z,40.08
2019-03-02T02:01:14.238Z,40.13
2019-03-02T02:02:14.245Z,40.07
2019-03-02T02:03:14.106Z,40.12
2019-03-02T02:04:14.280Z,40.12
2019-03-02T02:05:14.324Z,40.13
2019-03-02T02:06:14.078Z,40.12
2019-03-02T02:07:19.117Z,40.15
2019-03-02T02:08:14.262Z,40.13
2019-03-02T02:09:14.232Z,40.13
2019-03-02T02:10:14.339Z,40.11
2019-03-02T02:11:17.992Z,40.12
2019-03-02T02:12:14.111Z,40.07
2019-03-02T02:13:14.190Z,40.13
2019-03-02T02:14:18.529Z,40.09
2019-03-02T02:15:14.104Z,40.12
2019-03-02T02:16:14.261Z,40.15
2019-03-02T02:17:17.609Z,40.12
2019-03-02T02:18:14.122Z,40.1
2019-03-02T02:19:14.272Z,40.15
2019-03-02T02:20:15.558Z,40.08
2019-03-02T02:21:14.397Z,40.12
2019-03-02T02:22:14.188Z,40.12
2019-03-02T02:23:14.292Z,40.11
2019-03-02T02:24:14.414Z,40.14
2019-03-02T02:25:14.190Z,40.11
2019-03-02T02:26:14.397Z,40.13
2019-03-02T02:27:14.441Z,40.11
2019-03-02T02:28:14.215Z,40.14
2019-03-02T02:29:14.270Z,40.13
2019-03-02T02:30:24.140Z,40.15
2019-03-02T02:31:14.226Z,40.13
2019-03-02T02:32:14.252Z,40.12
2019-03-02T02:33:14.309Z,40.12
2019-03-02T02:34:23.407Z,40.11
2019-03-02T02:35:14.098Z,40.12
2019-03-02T02:36:20.371Z,40.11
2019-03-02T02:37:14.297Z,40.1
2019-03-02T02:38:17.553Z,40.12
2019-03-02T02:39:14.314Z,40.15
2019-03-02T02:40:14.346Z,40.14
2019-03-02T02:41:24.466Z,40.16
2019-03-02T02:42:14.200Z,40.15
2019-03-02T02:43:22.041Z,40.14
2019-03-02T02:44:14.138Z,40.17
2019-03-02T02:45:16.650Z,40.14
2019-03-02T02:46:14.280Z,40.14
2019-03-02T02:47:14.189Z,40.17
2019-03-02T02:48:14.217Z,40.1
2019-03-02T02:49:14.278Z,40.15
2019-03-02T02:50:14.140Z,40.13
2019-03-02T02:51:14.241Z,40.13
2019-03-02T02:52:14.256Z,40.13
2019-03-02T02:53:14.148Z,40.14
2019-03-02T02:54:14.306Z,40.15
2019-03-02T02:55:14.291Z,40.14
2019-03-02T02:56:21.209Z,40.12
2019-03-02T02:57:14.249Z,40.14
2019-03-02T02:58:19.334Z,40.14
2019-03-02T02:59:14.350Z,40.14
2019-03-02T03:00:17.739Z,40.15
2019-03-02T03:01:14.249Z,40.14
2019-03-02T03:02:14.367Z,40.13
2019-03-02T03:03:20.671Z,40.16
2019-03-02T03:04:14.227Z,40.14
2019-03-02T03:05:17.250Z,40.16
2019-03-02T03:06:14.255Z,40.19
2019-03-02T03:07:14.514Z,40.13
2019-03-02T03:08:14.321Z,40.15
2019-03-02T03:09:14.242Z,40.18
2019-03-02T03:10:14.221Z,40.14
2019-03-02T03:11:14.332Z,40.14
2019-03-02T03:12:22.642Z,40.15
2019-03-02T03:13:14.192Z,40.17
2019-03-02T03:14:20.123Z,40.16
2019-03-02T03:15:14.463Z,40.18
2019-03-02T03:16:17.991Z,40.15
2019-03-02T03:17:14.360Z,40.19
2019-03-02T03:18:15.354Z,40.13
2019-03-02T03:19:14.171Z,40.14
2019-03-02T03:20:14.301Z,40.18
2019-03-02T03:21:14.096Z,40.18
2019-03-02T03:22:14.291Z,40.13
2019-03-02T03:23:14.290Z,40.13
2019-03-02T03:24:14.139Z,40.15
2019-03-02T03:25:19.386Z,40.15
2019-03-02T03:26:14.237Z,40.14
2019-03-02T03:27:14.961Z,40.12
2019-03-02T03:28:14.117Z,40.11
2019-03-02T03:29:14.314Z,40.19
2019-03-02T03:30:14.086Z,40.13
2019-03-02T03:31:25.745Z,40.17
2019-03-02T03:32:14.288Z,40.12
2019-03-02T03:33:14.359Z,40.15
2019-03-02T03:34:14.295Z,40.17
2019-03-02T03:35:19.612Z,40.17
2019-03-02T03:36:15.339Z,40.15
2019-03-02T03:37:15.239Z,40.16
2019-03-02T03:38:14.216Z,40.13
2019-03-02T03:39:14.233Z,40.17
2019-03-02T03:40:14.091Z,40.15
2019-03-02T03:41:14.222Z,40.15
2019-03-02T03:42:24.296Z,40.14
2019-03-02T03:43:14.369Z,40.16
2019-03-02T03:44:25.590Z,40.14
2019-03-02T03:45:14.156Z,40.17
2019-03-02T03:46:22.531Z,40.17
2019-03-02T03:47:14.132Z,40.19
2019-03-02T03:48:19.311Z,40.18
2019-03-02T03:49:14.387Z,40.15
2019-03-02T03:50:15.918Z,40.15
2019-03-02T03:51:14.182Z,40.13
2019-03-02T03:52:14.252Z,40.14
2019-03-02T03:53:14.150Z,40.15
2019-03-02T03:54:14.196Z,40.13
2019-03-02T03:55:27.093Z,40.14
2019-03-02T03:56:14.107Z,40.14
2019-03-02T03:57:21.392Z,40.14
2019-03-02T03:58:14.556Z,40.16
2019-03-02T03:59:20.605Z,40.15
2019-03-02T04:00:14.116Z,40.17
2019-03-02T04:01:19.252Z,40.14
2019-03-02T04:02:14.282Z,40.13
2019-03-02T04:03:15.217Z,40.15
2019-03-02T04:04:14.211Z,40.15
2019-03-02T04:05:14.229Z,40.16
2019-03-02T04:06:14.112Z,40.15
2019-03-02T04:07:14.218Z,40.15
2019-03-02T04:08:14.286Z,40.12
2019-03-02T04:09:14.237Z,40.14
2019-03-02T04:10:14.294Z,40.13
2019-03-02T04:11:14.255Z,40.12
2019-03-02T04:12:14.205Z,40.13
2019-03-02T04:13:14.269Z,40.12
2019-03-02T04:14:23.255Z,40.16
2019-03-02T04:15:14.083Z,40.13
2019-03-02T04:16:20.527Z,40.12
2019-03-02T04:17:14.225Z,40.12
2019-03-02T04:18:17.605Z,40.14
2019-03-02T04:19:14.254Z,40.13
2019-03-02T04:20:14.526Z,40.13
2019-03-02T04:21:14.237Z,40.14
2019-03-02T04:22:14.208Z,40.17
2019-03-02T04:23:21.980Z,40.16
2019-03-02T04:24:14.333Z,40.11
2019-03-02T04:25:19.551Z,40.13
2019-03-02T04:26:14.154Z,40.17
2019-03-02T04:27:17.064Z,40.16
2019-03-02T04:28:14.173Z,40.13
2019-03-02T04:29:14.186Z,40.15
2019-03-02T04:30:14.337Z,40.17
2019-03-02T04:31:14.104Z,40.14
2019-03-02T04:32:14.115Z,40.13
2019-03-02T04:33:14.315Z,40.16
2019-03-02T04:34:22.499Z,40.19
2019-03-02T04:35:14.131Z,40.14
2019-03-02T04:36:14.276Z,40.17
2019-03-02T04:37:13.994Z,40.14
2019-03-02T04:38:14.148Z,40.18
2019-03-02T04:39:15.173Z,40.15
2019-03-02T04:40:14.266Z,40.12
2019-03-02T04:41:14.110Z,40.13
2019-03-02T04:42:15.438Z,40.14
2019-03-02T04:43:14.280Z,40.08
2019-03-02T04:44:14.105Z,40.13
2019-03-02T04:45:14.183Z,40.1
2019-03-02T04:46:16.680Z,40.12
2019-03-02T04:47:14.068Z,40.14
2019-03-02T04:48:14.237Z,40.12
2019-03-02T04:49:15.563Z,40.13
2019-03-02T04:50:14.106Z,40.15
2019-03-02T04:51:14.312Z,40.08
2019-03-02T04:52:15.494Z,40.09
2019-03-02T04:53:14.068Z,40.08
2019-03-02T04:54:14.229Z,40.04
2019-03-02T04:55:14.974Z,40.06
2019-03-02T04:56:14.100Z,40.03
2019-03-02T04:57:14.230Z,40.1
2019-03-02T04:58:14.288Z,40.03
2019-03-02T04:59:14.211Z,40.03
2019-03-02T05:00:14.251Z,40.02
2019-03-02T05:01:14.278Z,39.99
2019-03-02T05:02:19.606Z,39.99
2019-03-02T05:03:14.412Z,39.96
2019-03-02T05:04:14.221Z,39.99
2019-03-02T05:05:14.172Z,39.97
2019-03-02T05:06:18.859Z,39.93
2019-03-02T05:07:14.411Z,39.96
2019-03-02T05:08:14.066Z,39.91
2019-03-02T05:09:17.895Z,39.95
2019-03-02T05:10:14.221Z,39.94
2019-03-02T05:11:14.083Z,39.96
2019-03-02T05:12:15.514Z,39.95
2019-03-02T05:13:14.253Z,39.94
2019-03-02T05:14:14.067Z,39.95
2019-03-02T05:15:17.617Z,39.89
2019-03-02T05:16:14.240Z,40.05
2019-03-02T05:17:14.170Z,39.92
2019-03-02T05:18:18.164Z,39.95
2019-03-02T05:19:14.186Z,39.91
2019-03-02T05:20:14.081Z,39.95
2019-03-02T05:21:14.159Z,40.04
2019-03-02T05:22:18.694Z,39.98
2019-03-02T05:23:14.051Z,39.89
2019-03-02T05:24:14.368Z,39.89
2019-03-02T05:25:19.030Z,40
2019-03-02T05:26:14.057Z,40.04
2019-03-02T05:27:14.230Z,40.01
2019-03-02T05:28:14.298Z,39.97
2019-03-02T05:29:17.667Z,39.96
2019-03-02T05:30:14.141Z,40.09
2019-03-02T05:31:14.177Z,39.98
2019-03-02T05:32:16.754Z,39.99
2019-03-02T05:33:14.203Z,39.97
2019-03-02T05:34:14.248Z,40.03
2019-03-02T05:35:16.797Z,40.03
2019-03-02T05:36:14.188Z,39.92
2019-03-02T05:37:14.333Z,40.01
2019-03-02T05:38:16.106Z,39.98
2019-03-02T05:39:18.067Z,40.06
2019-03-02T05:40:14.339Z,40.02
2019-03-02T05:41:14.049Z,39.99
2019-03-02T05:42:14.697Z,39.96
2019-03-02T05:43:14.167Z,40.02
2019-03-02T05:44:14.049Z,39.99
2019-03-02T05:45:14.305Z,39.94
2019-03-02T05:46:14.335Z,39.98
2019-03-02T05:47:14.107Z,40.04
2019-03-02T05:48:14.186Z,40.06
2019-03-02T05:49:18.593Z,40.04
2019-03-02T05:50:14.330Z,39.92
2019-03-02T05:51:14.198Z,40
2019-03-02T05:52:17.752Z,39.99
2019-03-02T05:53:14.027Z,39.97
2019-03-02T05:54:14.199Z,39.96
2019-03-02T05:55:19.062Z,39.95
2019-03-02T05:56:14.167Z,39.98
2019-03-02T05:57:14.175Z,39.95
2019-03-02T05:58:17.198Z,39.93
2019-03-02T05:59:14.077Z,39.92
2019-03-02T06:00:14.196Z,39.98
2019-03-02T06:01:14.252Z,39.91
2019-03-02T06:02:18.189Z,39.94
2019-03-02T06:03:14.208Z,39.89
2019-03-02T06:04:14.352Z,39.95
2019-03-02T06:05:14.080Z,39.9
2019-03-02T06:06:14.159Z,39.96
2019-03-02T06:07:14.667Z,39.91
2019-03-02T06:08:14.159Z,39.94
2019-03-02T06:09:14.995Z,39.89
2019-03-02T06:10:14.245Z,39.85
2019-03-02T06:11:13.996Z,39.85
2019-03-02T06:12:16.319Z,39.93
2019-03-02T06:13:14.210Z,39.9
2019-03-02T06:14:14.138Z,39.88
2019-03-02T06:15:14.165Z,39.85
2019-03-02T06:16:15.455Z,39.85
2019-03-02T06:17:14.017Z,39.82
2019-03-02T06:18:14.153Z,39.85
2019-03-02T06:19:23.209Z,39.83
2019-03-02T06:20:14.101Z,39.84
2019-03-02T06:21:14.145Z,39.83
2019-03-02T06:22:20.834Z,39.78
2019-03-02T06:23:14.011Z,39.8
2019-03-02T06:24:15.616Z,39.8
2019-03-02T06:25:22.871Z,39.8
2019-03-02T06:26:14.299Z,39.79
2019-03-02T06:27:14.156Z,39.77
2019-03-02T06:28:14.464Z,39.75
2019-03-02T06:29:14.685Z,39.73
2019-03-02T06:30:14.120Z,39.78
2019-03-02T06:31:19.045Z,39.75
2019-03-02T06:32:14.284Z,39.71
2019-03-02T06:33:14.093Z,39.75
2019-03-02T06:34:19.637Z,39.75
2019-03-02T06:35:14.479Z,39.69
2019-03-02T06:36:14.062Z,39.69
2019-03-02T06:37:19.893Z,39.76
2019-03-02T06:38:14.180Z,39.71
2019-03-02T06:39:14.127Z,39.67
2019-03-02T06:40:19.698Z,39.69
2019-03-02T06:41:14.180Z,39.66
2019-03-02T06:42:14.058Z,39.65
2019-03-02T06:43:14.127Z,39.67
2019-03-02T06:44:14.150Z,39.63
2019-03-02T06:45:14.066Z,39.61
2019-03-02T06:46:19.804Z,39.61
2019-03-02T06:47:14.193Z,39.66
2019-03-02T06:48:14.045Z,39.6
2019-03-02T06:49:19.870Z,39.59
2019-03-02T06:50:14.196Z,39.57
2019-03-02T06:51:13.981Z,39.58
2019-03-02T06:52:14.044Z,39.61
2019-03-02T06:53:14.211Z,39.57
2019-03-02T06:54:14.294Z,39.59
2019-03-02T06:55:14.066Z,39.5
2019-03-02T06:56:15.946Z,39.52
2019-03-02T06:57:15.157Z,39.58
2019-03-02T06:58:14.033Z,39.51
2019-03-02T06:59:14.142Z,39.52
2019-03-02T07:00:15.083Z,39.57
2019-03-02T07:01:13.994Z,39.54
2019-03-02T07:02:14.210Z,39.5
2019-03-02T07:03:14.241Z,39.54
2019-03-02T07:04:21.839Z,39.52
2019-03-02T07:05:14.227Z,39.49
2019-03-02T07:06:14.249Z,39.52
2019-03-02T07:07:14.009Z,39.51
2019-03-02T07:08:14.184Z,39.52
2019-03-02T07:09:14.221Z,39.46
2019-03-02T07:10:14.036Z,39.46
2019-03-02T07:11:14.201Z,39.45
2019-03-02T07:12:14.313Z,39.43
2019-03-02T07:13:14.059Z,39.49
2019-03-02T07:14:16.283Z,39.5
2019-03-02T07:15:14.188Z,39.43
2019-03-02T07:16:20.030Z,39.45
2019-03-02T07:17:14.159Z,39.44
2019-03-02T07:18:14.231Z,39.45
2019-03-02T07:19:17.674Z,39.41
2019-03-02T07:20:14.141Z,39.42
2019-03-02T07:21:14.321Z,39.37
2019-03-02T07:22:17.961Z,39.39
2019-03-02T07:23:14.111Z,39.38
2019-03-02T07:24:14.273Z,39.38
2019-03-02T07:25:14.825Z,39.32
2019-03-02T07:26:19.660Z,39.37
2019-03-02T07:27:14.199Z,39.38
2019-03-02T07:28:14.117Z,39.4
2019-03-02T07:29:18.713Z,39.32
2019-03-02T07:30:14.181Z,39.37
2019-03-02T07:31:13.996Z,39.35
2019-03-02T07:32:14.109Z,39.35
2019-03-02T07:33:14.302Z,39.38
2019-03-02T07:34:14.316Z,39.36
2019-03-02T07:35:19.243Z,39.34
2019-03-02T07:36:14.258Z,39.33
2019-03-02T07:37:13.973Z,39.34
2019-03-02T07:38:20.184Z,39.36
2019-03-02T07:39:14.131Z,39.38
2019-03-02T07:40:14.002Z,39.34
2019-03-02T07:41:14.074Z,39.29
2019-03-02T07:42:14.140Z,39.35
2019-03-02T07:43:14.014Z,39.26
2019-03-02T07:44:14.099Z,39.31
2019-03-02T07:45:14.267Z,39.32
2019-03-02T07:46:14.078Z,39.29
2019-03-02T07:47:14.071Z,39.31
2019-03-02T07:48:14.221Z,39.26
2019-03-02T07:49:14.487Z,39.26
2019-03-02T07:50:14.086Z,39.24
2019-03-02T07:51:14.116Z,39.26
2019-03-02T07:52:18.515Z,39.28
2019-03-02T07:53:14.154Z,39.28
2019-03-02T07:54:14.139Z,39.33
2019-03-02T07:55:20.309Z,39.22
2019-03-02T07:56:14.144Z,39.23
2019-03-02T07:57:14.086Z,39.26
2019-03-02T07:58:19.642Z,39.24
2019-03-02T07:59:14.058Z,39.23
2019-03-02T08:00:14.030Z,39.23
2019-03-02T08:01:17.786Z,39.21
2019-03-02T08:02:14.047Z,39.2
2019-03-02T08:03:14.087Z,39.24
2019-03-02T08:04:14.251Z,39.22
2019-03-02T08:05:15.367Z,39.21
2019-03-02T08:06:14.176Z,39.2
2019-03-02T08:07:13.971Z,39.17
2019-03-02T08:08:15.138Z,39.2
2019-03-02T08:09:14.096Z,39.21
2019-03-02T08:10:13.982Z,39.18
2019-03-02T08:11:14.441Z,39.21
2019-03-02T08:12:14.281Z,39.16
2019-03-02T08:13:14.057Z,39.21
2019-03-02T08:14:16.248Z,39.21
2019-03-02T08:15:14.113Z,39.18
2019-03-02T08:16:14.410Z,39.16
2019-03-02T08:17:14.586Z,39.16
2019-03-02T08:18:14.464Z,39.18
2019-03-02T08:19:14.101Z,39.14
2019-03-02T08:20:14.132Z,39.16
2019-03-02T08:21:14.245Z,39.2
2019-03-02T08:22:14.029Z,39.19
2019-03-02T08:23:14.729Z,39.15
2019-03-02T08:24:14.280Z,39.2
2019-03-02T08:25:13.991Z,39.15
2019-03-02T08:26:14.148Z,39.12
2019-03-02T08:27:14.109Z,39.11
2019-03-02T08:28:13.993Z,39.12
2019-03-02T08:29:14.094Z,39.1
2019-03-02T08:30:14.165Z,39.13
2019-03-02T08:31:14.097Z,39.06
2019-03-02T08:32:14.066Z,39.11
2019-03-02T08:33:14.215Z,39.12
2019-03-02T08:34:14.077Z,39.12
2019-03-02T08:35:14.101Z,39.07
2019-03-02T08:36:18.234Z,39.09
2019-03-02T08:37:14.109Z,39.07
2019-03-02T08:38:14.232Z,39.07
2019-03-02T08:39:14.846Z,39.1
2019-03-02T08:40:13.964Z,39.09
2019-03-02T08:41:14.073Z,39.09
2019-03-02T08:42:14.227Z,39.08
2019-03-02T08:43:17.196Z,39.03
2019-03-02T08:44:18.904Z,39.07
2019-03-02T08:45:14.143Z,39.09
2019-03-02T08:46:13.914Z,39.08
2019-03-02T08:47:14.126Z,39.06
2019-03-02T08:48:14.502Z,39.07
2019-03-02T08:49:13.965Z,39.03
2019-03-02T08:50:18.753Z,39.11
2019-03-02T08:51:14.288Z,39.05
2019-03-02T08:52:13.999Z,38.99
2019-03-02T08:53:14.131Z,39.03
2019-03-02T08:54:14.179Z,39.04
2019-03-02T08:55:14.000Z,39.05
2019-03-02T08:56:14.064Z,38.99
2019-03-02T08:57:14.345Z,39.03
2019-03-02T08:58:14.043Z,39.07
2019-03-02T08:59:14.127Z,39.04
2019-03-02T09:00:14.067Z,39.02
2019-03-02T09:01:18.573Z,38.99
2019-03-02T09:02:14.162Z,39.01
2019-03-02T09:03:13.921Z,39.01
2019-03-02T09:04:15.230Z,39.03
2019-03-02T09:05:14.153Z,39.02
2019-03-02T09:06:13.959Z,39.02
2019-03-02T09:07:14.013Z,39.03
2019-03-02T09:08:14.234Z,38.97
2019-03-02T09:09:13.977Z,38.99
2019-03-02T09:10:14.661Z,38.98
2019-03-02T09:11:14.162Z,39.01
2019-03-02T09:12:14.023Z,38.95
2019-03-02T09:13:14.071Z,38.95
2019-03-02T09:14:14.226Z,38.96
2019-03-02T09:15:13.907Z,38.95
2019-03-02T09:16:13.981Z,38.97
2019-03-02T09:17:18.876Z,38.96
2019-03-02T09:18:14.012Z,38.99
2019-03-02T09:19:20.440Z,38.95
2019-03-02T09:20:14.155Z,38.95
2019-03-02T09:21:14.129Z,38.98
2019-03-02T09:22:14.357Z,38.9
2019-03-02T09:23:15.268Z,38.97
2019-03-02T09:24:14.352Z,38.92
2019-03-02T09:25:14.129Z,38.92
2019-03-02T09:26:15.117Z,38.94
2019-03-02T09:27:14.274Z,39.28
2019-03-02T09:28:14.311Z,39.1
2019-03-02T09:29:14.028Z,39.25
2019-03-02T09:30:14.491Z,39.42
2019-03-02T09:31:13.929Z,39.65
2019-03-02T09:32:15.232Z,39.73
2019-03-02T09:33:14.266Z,39.84
2019-03-02T09:34:13.969Z,39.69
2019-03-02T09:35:17.242Z,39.81
2019-03-02T09:36:14.056Z,39.39
2019-03-02T09:37:14.265Z,39.62
2019-03-02T09:38:20.749Z,39.5
2019-03-02T09:39:14.021Z,39.67
2019-03-02T09:40:14.671Z,39.57
2019-03-02T09:41:13.931Z,39.33
2019-03-02T09:42:14.023Z,39.85
2019-03-02T09:43:17.111Z,39.48
2019-03-02T09:44:14.515Z,39.54
2019-03-02T09:45:14.119Z,39.53
2019-03-02T09:46:14.308Z,39.7
2019-03-02T09:47:13.947Z,39.15
2019-03-02T09:48:13.969Z,39.21
2019-03-02T09:49:14.111Z,39.07
2019-03-02T09:50:14.642Z,39.17
2019-03-02T09:51:14.546Z,39.24
2019-03-02T09:52:14.092Z,39.15
2019-03-02T09:53:14.269Z,39.28
2019-03-02T09:54:14.016Z,39.08
2019-03-02T09:55:19.697Z,39.15
2019-03-02T09:56:16.211Z,39.18
2019-03-02T09:57:13.978Z,39.04
2019-03-02T09:58:14.262Z,39.04
2019-03-02T09:59:14.108Z,39
2019-03-02T10:00:13.928Z,39.03
2019-03-02T10:01:14.101Z,39.1
2019-03-02T10:02:15.723Z,39.13
2019-03-02T10:03:13.957Z,39.34
2019-03-02T10:04:14.058Z,39.32
2019-03-02T10:05:15.559Z,39.25
2019-03-02T10:06:13.912Z,39.21
2019-03-02T10:07:14.046Z,39.23
2019-03-02T10:08:14.363Z,39.03
2019-03-02T10:09:13.880Z,39.17
2019-03-02T10:10:14.073Z,38.85
2019-03-02T10:11:14.134Z,38.88
2019-03-02T10:12:15.313Z,38.87
2019-03-02T10:13:14.135Z,38.98
2019-03-02T10:14:14.105Z,38.92
2019-03-02T10:15:13.959Z,39.15
2019-03-02T10:16:14.110Z,38.92
2019-03-02T10:17:14.105Z,38.74
2019-03-02T10:18:14.944Z,39.02
2019-03-02T10:19:14.124Z,38.92
2019-03-02T10:20:14.087Z,38.79
2019-03-02T10:21:14.037Z,38.99
2019-03-02T10:22:14.020Z,39.09
2019-03-02T10:23:14.227Z,38.86
2019-03-02T10:24:18.004Z,38.88
2019-03-02T10:25:14.022Z,39.16
2019-03-02T10:26:14.208Z,39.21
2019-03-02T10:27:20.987Z,39.16
2019-03-02T10:28:14.169Z,39.15
2019-03-02T10:29:14.071Z,39.13
2019-03-02T10:30:13.944Z,39.65
2019-03-02T10:31:14.064Z,39.34
2019-03-02T10:32:14.099Z,39.36
2019-03-02T10:33:13.953Z,39.13
2019-03-02T10:34:14.146Z,39.38
2019-03-02T10:35:18.197Z,39.56
2019-03-02T10:36:14.039Z,39.65
2019-03-02T10:37:14.044Z,39.34
2019-03-02T10:38:18.898Z,39.61
2019-03-02T10:39:14.179Z,39.73
2019-03-02T10:40:14.094Z,39.35
2019-03-02T10:41:20.254Z,39.63
2019-03-02T10:42:13.954Z,39.27
2019-03-02T10:43:14.136Z,39.85
2019-03-02T10:44:14.193Z,39.4
2019-03-02T10:45:14.058Z,39.17
2019-03-02T10:46:13.987Z,39.75
2019-03-02T10:47:15.155Z,39.44
2019-03-02T10:48:14.252Z,39.26
2019-03-02T10:49:14.038Z,39.62
2019-03-02T10:50:14.106Z,39.55
2019-03-02T10:51:14.068Z,39.37
2019-03-02T10:52:14.575Z,39.71
2019-03-02T10:53:14.231Z,39.39
2019-03-02T10:54:13.913Z,39.48
2019-03-02T10:55:14.079Z,39.91
2019-03-02T10:56:14.109Z,39.58
2019-03-02T10:57:13.908Z,39.32
2019-03-02T10:58:14.085Z,39.52
2019-03-02T10:59:16.427Z,39.66
2019-03-02T11:00:13.952Z,39.97
2019-03-02T11:01:14.090Z,39.49
2019-03-02T11:02:19.992Z,39.29
2019-03-02T11:03:14.275Z,39.33
2019-03-02T11:04:13.948Z,39.33
2019-03-02T11:05:16.862Z,39.3
2019-03-02T11:06:14.188Z,39.79
2019-03-02T11:07:14.099Z,39.5
2019-03-02T11:08:14.057Z,39.25
2019-03-02T11:09:22.726Z,39.25
2019-03-02T11:10:17.415Z,39.39
2019-03-02T11:11:13.994Z,39.09
2019-03-02T11:12:14.110Z,39.21
2019-03-02T11:13:19.154Z,39.39
2019-03-02T11:14:14.018Z,39.19
2019-03-02T11:15:14.166Z,39.02
2019-03-02T11:16:13.966Z,39.15
2019-03-02T11:17:14.139Z,38.98
2019-03-02T11:18:14.182Z,38.98
2019-03-02T11:19:14.223Z,39
2019-03-02T11:20:14.054Z,39.02
2019-03-02T11:21:14.199Z,39.19
2019-03-02T11:22:16.562Z,39.03
2019-03-02T11:23:19.641Z,39.25
2019-03-02T11:24:14.148Z,39.18
2019-03-02T11:25:13.905Z,39.4
2019-03-02T11:26:14.000Z,39.39
2019-03-02T11:27:14.132Z,39.48
2019-03-02T11:28:14.002Z,39.57
2019-03-02T11:29:13.918Z,39.54
2019-03-02T11:30:14.250Z,39.56
2019-03-02T11:31:14.423Z,39.78
2019-03-02T11:32:20.254Z,39.53
2019-03-02T11:33:14.069Z,39.52
2019-03-02T11:34:13.942Z,39.7
2019-03-02T11:35:14.019Z,39.64
2019-03-02T11:36:15.201Z,39.67
2019-03-02T11:37:13.932Z,39.67
2019-03-02T11:38:13.951Z,39.52
2019-03-02T11:39:18.228Z,39.43
2019-03-02T11:40:14.133Z,39.51
2019-03-02T11:41:13.918Z,39.71
2019-03-02T11:42:15.040Z,39.53
2019-03-02T11:43:17.276Z,39.49
2019-03-02T11:44:13.940Z,39.42
2019-03-02T11:45:14.754Z,39.61
2019-03-02T11:46:14.233Z,39.66
2019-03-02T11:47:13.957Z,39.36
2019-03-02T11:48:17.468Z,39.62
2019-03-02T11:49:14.099Z,39.16
2019-03-02T11:50:15.554Z,39.04
2019-03-02T11:51:14.084Z,39.14
2019-03-02T11:52:14.483Z,39.13
2019-03-02T11:53:16.828Z,38.98
2019-03-02T11:54:14.291Z,38.96
2019-03-02T11:55:14.138Z,39.12
2019-03-02T11:56:27.019Z,38.97
2019-03-02T11:57:14.025Z,38.92
2019-03-02T11:58:14.204Z,39.09
2019-03-02T11:59:13.921Z,38.99
2019-03-02T12:00:14.101Z,38.93
2019-03-02T12:01:14.079Z,38.92
2019-03-02T12:02:19.806Z,39
2019-03-02T12:03:14.057Z,38.93
2019-03-02T12:04:16.292Z,38.93
2019-03-02T12:05:13.852Z,38.92
2019-03-02T12:06:13.981Z,38.87
2019-03-02T12:07:14.150Z,38.91
2019-03-02T12:08:13.913Z,38.92
2019-03-02T12:09:14.048Z,38.93
2019-03-02T12:10:14.090Z,38.92
2019-03-02T12:11:13.886Z,38.91
2019-03-02T12:12:14.036Z,38.89
2019-03-02T12:13:14.050Z,38.94
2019-03-02T12:14:14.016Z,38.89
2019-03-02T12:15:14.234Z,38.89
2019-03-02T12:16:14.119Z,39.19
2019-03-02T12:17:14.049Z,39.17
2019-03-02T12:18:19.554Z,39.26
2019-03-02T12:19:14.043Z,38.98
2019-03-02T12:20:14.492Z,38.91
2019-03-02T12:21:14.084Z,38.83
2019-03-02T12:22:14.215Z,38.69
2019-03-02T12:23:14.241Z,38.84
2019-03-02T12:24:19.084Z,38.89
2019-03-02T12:25:14.266Z,38.88
2019-03-02T12:26:14.033Z,38.61
2019-03-02T12:27:14.095Z,38.89
2019-03-02T12:28:14.169Z,38.91
2019-03-02T12:29:15.069Z,38.88
2019-03-02T12:30:14.102Z,38.83
2019-03-02T12:31:13.928Z,38.68
2019-03-02T12:32:13.964Z,38.54
2019-03-02T12:33:20.443Z,38.54
2019-03-02T12:34:13.916Z,38.67
2019-03-02T12:35:13.958Z,38.66
2019-03-02T12:36:17.242Z,38.68
2019-03-02T12:37:14.149Z,38.72
2019-03-02T12:38:14.022Z,38.69
2019-03-02T12:39:14.099Z,38.69
2019-03-02T12:40:14.127Z,38.67
2019-03-02T12:41:16.699Z,38.68
2019-03-02T12:42:14.073Z,38.7
2019-03-02T12:43:14.141Z,38.69
2019-03-02T12:44:21.230Z,38.68
2019-03-02T12:45:14.010Z,38.68
2019-03-02T12:46:17.036Z,38.75
2019-03-02T12:47:13.941Z,38.73
2019-03-02T12:48:14.078Z,38.67
2019-03-02T12:49:14.175Z,38.72
2019-03-02T12:50:13.939Z,38.75
2019-03-02T12:51:13.995Z,38.68
2019-03-02T12:52:16.579Z,38.73
2019-03-02T12:53:16.242Z,38.68
2019-03-02T12:54:14.344Z,38.68